Time;durP1;ratioP1;P1;durP2;ratioP2;P2;SDS_P1;SDS_P2;PMS_P1;PMS_P2;Temp;Humidity;BMP_temperature;BMP_pressure;BME280_temperature;BME280_humidity;BME280_pressure;Samples;Min_cycle;Max_cycle;Signal;HPM_P1;HPM_P2
2022/05/03 00:00:05;;;;;;;;;37.00;32.33;;;;;13.67;46.88;101520.25;4979774;28;45365;-65
2022/05/03 00:02:35;;;;;;;;;43.00;32.33;;;;;13.64;47.12;101516.91;4969239;28;45505;-65
2022/05/03 00:05:30;;;;;;;;;42.67;35.33;;;;;13.55;47.87;101513.75;4979981;28;46253;-66
2022/05/03 00:08:27;;;;;;;;;40.00;32.33;;;;;13.51;47.33;101509.50;4966280;28;45476;-65
2022/05/03 00:11:10;;;;;;;;;37.67;34.33;;;;;13.47;47.47;101507.06;4938547;28;45390;-65
2022/05/03 00:13:46;;;;;;;;;37.00;28.67;;;;;13.43;47.58;101505.47;4979649;28;45275;-65
2022/05/03 00:16:15;;;;;;;;;38.33;31.33;;;;;13.39;47.51;101502.13;4980112;28;45467;-65
2022/05/03 00:18:42;;;;;;;;;34.67;30.67;;;;;13.39;47.37;101504.78;4961744;28;50060;-65
2022/05/03 00:21:08;;;;;;;;;37.00;32.33;;;;;13.36;47.83;101502.22;4979737;28;62596;-64
2022/05/03 00:23:33;;;;;;;;;43.00;35.50;;;;;13.33;47.93;101499.72;4975020;28;45436;-65
2022/05/03 00:25:58;;;;;;;;;37.75;32.50;;;;;13.31;47.52;101497.13;4978797;28;66456;-65
2022/05/03 00:28:24;;;;;;;;;35.75;32.50;;;;;13.33;47.43;101495.22;4980315;28;45340;-64
2022/05/03 00:30:49;;;;;;;;;40.25;32.75;;;;;13.33;47.72;101492.56;4961502;28;60262;-64
2022/05/03 00:33:15;;;;;;;;;40.75;34.50;;;;;13.34;47.78;101493.44;4979685;28;45340;-64
2022/05/03 00:35:40;;;;;;;;;45.00;36.00;;;;;13.36;47.75;101496.88;4978801;28;46144;-65
2022/05/03 00:38:06;;;;;;;;;47.50;35.50;;;;;13.38;47.79;101495.03;4961251;28;64387;-64
2022/05/03 00:40:32;;;;;;;;;39.67;30.67;;;;;13.39;47.73;101494.94;4980413;28;45905;-64
2022/05/03 00:43:07;;;;;;;;;44.00;33.00;;;;;13.43;47.60;101497.47;4979676;28;45522;-65
2022/05/03 00:45:47;;;;;;;;;36.75;32.75;;;;;13.45;47.26;101484.91;4979922;28;45538;-64
2022/05/03 00:48:37;;;;;;;;;46.67;39.00;;;;;13.46;47.40;101489.31;4962669;28;45468;-64
2022/05/03 00:51:08;;;;;;;;;38.33;34.00;;;;;13.44;47.45;101485.84;4967477;28;45416;-64
2022/05/03 00:53:34;;;;;;;;;39.33;34.67;;;;;13.43;47.42;101484.97;4962492;28;45448;-64
2022/05/03 00:56:23;;;;;;;;;44.33;33.33;;;;;13.40;47.30;101486.00;4979083;28;46547;-65
2022/05/03 00:59:11;;;;;;;;;45.00;35.67;;;;;13.43;47.19;101482.31;4978926;28;45231;-66
2022/05/03 01:01:51;;;;;;;;;38.67;32.33;;;;;13.44;47.19;101488.50;4962417;28;45385;-66
2022/05/03 01:04:38;;;;;;;;;38.33;32.67;;;;;13.39;47.31;101484.25;4952511;28;45266;-66
2022/05/03 01:07:15;;;;;;;;;33.33;31.67;;;;;13.35;46.91;101480.00;4978671;28;45436;-66
2022/05/03 01:10:07;;;;;;;;;37.25;32.25;;;;;13.31;47.19;101486.44;4979158;28;45240;-65
2022/05/03 01:13:15;;;;;;;;;43.50;33.75;;;;;13.27;47.39;101484.88;4939567;28;45558;-65
2022/05/03 01:15:44;;;;;;;;;36.50;32.50;;;;;13.24;47.21;101480.56;4960801;28;45454;-64
2022/05/03 01:18:22;;;;;;;;;33.75;31.75;;;;;13.22;47.33;101479.75;4962142;28;46066;-65
2022/05/03 01:21:09;;;;;;;;;41.75;32.50;;;;;13.22;47.37;101485.09;4953196;28;45295;-64
2022/05/03 01:23:53;;;;;;;;;43.67;33.33;;;;;13.20;47.36;101484.28;4979260;28;45484;-65
2022/05/03 01:26:48;;;;;;;;;37.00;27.75;;;;;13.15;47.55;101489.00;4973977;28;45338;-65
2022/05/03 01:29:32;;;;;;;;;40.67;34.67;;;;;13.10;47.44;101468.81;4957946;28;45801;-65
2022/05/03 01:32:02;;;;;;;;;39.50;32.50;;;;;13.08;47.43;101485.78;4977309;28;45656;-64
2022/05/03 01:34:28;;;;;;;;;38.50;34.00;;;;;13.03;48.14;101477.13;4978875;28;45326;-64
2022/05/03 01:37:16;;;;;;;;;36.25;32.50;;;;;12.99;47.78;101469.34;4978244;28;45526;-65
2022/05/03 01:40:07;;;;;;;;;36.67;32.00;;;;;12.94;47.85;101477.56;4977961;28;45326;-65
2022/05/03 01:42:58;;;;;;;;;37.67;33.00;;;;;12.94;47.83;101468.72;4978858;28;45512;-65
2022/05/03 01:45:30;;;;;;;;;36.33;33.67;;;;;12.94;47.97;101474.06;4964300;28;45271;-65
2022/05/03 01:48:14;;;;;;;;;36.67;32.00;;;;;12.94;48.05;101468.72;4978745;28;45315;-65
2022/05/03 01:51:00;;;;;;;;;35.00;31.00;;;;;12.95;47.93;101481.13;4977735;28;46148;-65
2022/05/03 01:53:28;;;;;;;;;39.00;32.00;;;;;12.95;47.66;101467.78;4978821;28;45388;-64
2022/05/03 01:56:20;;;;;;;;;32.33;30.67;;;;;12.94;47.82;101466.91;4977150;28;45422;-64
2022/05/03 01:59:23;;;;;;;;;35.00;29.33;;;;;12.91;47.93;101469.72;4978593;28;45286;-64
2022/05/03 02:02:08;;;;;;;;;39.00;34.00;;;;;12.86;47.51;101464.59;4973498;28;46364;-65
2022/05/03 02:04:55;;;;;;;;;41.00;33.67;;;;;12.84;47.88;101461.16;4959242;28;45526;-64
2022/05/03 02:07:23;;;;;;;;;31.33;27.33;;;;;12.81;47.84;101463.13;4978521;28;45354;-64
2022/05/03 02:10:09;;;;;;;;;32.67;30.00;;;;;12.79;48.18;101459.63;4978486;28;45422;-64
2022/05/03 02:12:35;;;;;;;;;38.67;33.33;;;;;12.77;48.12;101461.53;4973275;28;47098;-64
2022/05/03 02:15:11;;;;;;;;;36.00;31.33;;;;;12.75;47.94;101466.97;4962717;28;45335;-64
2022/05/03 02:17:53;;;;;;;;;32.67;30.67;;;;;12.73;48.09;101463.47;4981938;28;45460;-64
2022/05/03 02:20:37;;;;;;;;;37.67;32.33;;;;;12.71;47.94;101465.34;4982274;28;45519;-64
2022/05/03 02:23:24;;;;;;;;;34.33;32.00;;;;;12.70;47.93;101468.97;4981012;28;46205;-64
2022/05/03 02:25:56;;;;;;;;;39.67;32.33;;;;;12.66;48.04;101468.25;4980320;28;45374;-64
2022/05/03 02:28:34;;;;;;;;;39.33;31.33;;;;;12.67;48.03;101471.78;4965057;28;45365;-64
2022/05/03 02:31:00;;;;;;;;;42.50;33.00;;;;;12.66;47.82;101476.25;4981189;28;45348;-64
2022/05/03 02:33:27;;;;;;;;;33.67;31.00;;;;;12.66;47.81;101478.06;4981567;28;45433;-64
2022/05/03 02:35:56;;;;;;;;;36.00;30.67;;;;;12.67;48.30;101472.66;4980870;28;45560;-65
2022/05/03 02:38:51;;;;;;;;;41.33;32.67;;;;;12.65;48.15;101474.53;4974861;28;45302;-65
2022/05/03 02:41:17;;;;;;;;;37.33;33.00;;;;;12.67;48.52;101474.44;4978665;28;45305;-65
2022/05/03 02:43:43;;;;;;;;;34.67;31.00;;;;;12.67;48.25;101474.44;4963759;28;47266;-65
2022/05/03 02:46:31;;;;;;;;;39.00;34.00;;;;;12.67;48.03;101470.00;4975825;28;45496;-65
2022/05/03 02:49:04;;;;;;;;;38.00;31.33;;;;;12.72;48.04;101481.31;4966422;28;45447;-65
2022/05/03 02:51:39;;;;;;;;;38.67;32.00;;;;;12.72;47.81;101473.31;4980033;28;45605;-65
2022/05/03 02:54:39;;;;;;;;;41.33;33.67;;;;;12.73;47.99;101469.66;4981566;28;45874;-65
2022/05/03 02:57:17;;;;;;;;;45.33;34.00;;;;;12.76;47.88;101470.47;4973040;28;45515;-65
2022/05/03 03:03:02;;;;;;;;;32.00;29.67;;;;;12.74;47.99;101468.75;4947796;28;45643;-65
2022/05/03 03:05:27;;;;;;;;;32.67;31.00;;;;;12.73;47.76;101466.16;4928577;28;45553;-65
2022/05/03 03:07:56;;;;;;;;;32.67;30.67;;;;;12.74;48.26;101481.22;4963089;28;50526;-65
2022/05/03 03:10:22;;;;;;;;;30.00;28.33;;;;;12.72;48.10;101475.97;4963676;28;45360;-65
2022/05/03 03:12:51;;;;;;;;;41.00;31.75;;;;;12.69;48.54;101465.44;4963394;28;45625;-65
2022/05/03 03:15:16;;;;;;;;;37.33;32.67;;;;;12.69;48.66;101472.59;4980055;28;45292;-65
2022/05/03 03:17:43;;;;;;;;;40.67;30.33;;;;;12.70;48.54;101474.31;4962042;28;45406;-65
2022/05/03 03:20:12;;;;;;;;;35.00;32.25;;;;;12.69;48.59;101477.91;4981062;28;45464;-65
2022/05/03 03:22:38;;;;;;;;;41.33;32.67;;;;;12.66;48.52;101476.25;4981394;28;45235;-65
2022/05/03 03:25:04;;;;;;;;;34.67;31.33;;;;;12.66;48.71;101472.72;4980509;28;46135;-65
2022/05/03 03:27:31;;;;;;;;;37.00;33.00;;;;;12.68;48.59;101470.84;4980562;28;45443;-65
2022/05/03 03:29:57;;;;;;;;;36.67;31.00;;;;;12.70;48.87;101472.50;4980206;28;45319;-65
2022/05/03 03:32:25;;;;;;;;;41.00;33.67;;;;;12.72;48.80;101470.63;4963801;28;45438;-65
2022/05/03 03:34:50;;;;;;;;;37.00;31.00;;;;;12.74;48.63;101466.06;4980191;28;46218;-65
2022/05/03 03:37:16;;;;;;;;;38.33;32.67;;;;;12.78;48.78;101468.63;4963559;28;45431;-65
2022/05/03 03:39:41;;;;;;;;;37.67;31.33;;;;;12.79;48.56;101471.19;4962544;28;53745;-65
2022/05/03 03:42:07;;;;;;;;;41.00;31.00;;;;;12.78;48.54;101460.59;4980899;28;54193;-65
2022/05/03 03:44:32;;;;;;;;;37.00;33.00;;;;;12.78;48.90;101461.47;4978901;28;46138;-65
2022/05/03 03:47:00;;;;;;;;;39.00;30.67;;;;;12.79;48.78;101462.31;4980293;28;45172;-66
2022/05/03 03:49:26;;;;;;;;;37.67;32.67;;;;;12.79;48.66;101462.31;4980760;28;45521;-65
2022/05/03 03:51:51;;;;;;;;;36.33;32.33;;;;;12.78;48.68;101456.13;4962637;28;45402;-65
2022/05/03 03:54:17;;;;;;;;;36.00;30.67;;;;;12.80;48.63;101461.38;4945801;28;61958;-65
2022/05/03 03:56:42;;;;;;;;;35.33;33.00;;;;;12.78;48.79;101458.78;4962633;28;45448;-66
2022/05/03 03:59:08;;;;;;;;;36.33;31.00;;;;;12.78;48.75;101465.94;4962844;28;45345;-65
2022/05/03 04:01:33;;;;;;;;;39.67;32.00;;;;;12.77;48.61;101465.06;4963262;28;45656;-66
2022/05/03 04:03:58;;;;;;;;;35.00;32.33;;;;;12.74;48.91;101460.72;4961586;28;61654;-65
2022/05/03 04:06:24;;;;;;;;;41.67;32.67;;;;;12.74;48.62;101459.88;4945720;28;62668;-65
2022/05/03 04:08:49;;;;;;;;;45.75;36.00;;;;;12.72;48.73;101461.75;4979675;28;58476;-65
2022/05/03 04:11:18;;;;;;;;;40.00;33.25;;;;;12.72;48.82;101462.63;4962578;28;56432;-65
2022/05/03 04:13:46;;;;;;;;;46.25;34.25;;;;;12.70;48.86;101459.16;4979318;28;46244;-65
2022/05/03 04:16:12;;;;;;;;;40.67;34.33;;;;;12.65;48.95;101461.19;4979439;28;45592;-65
2022/05/03 04:18:47;;;;;;;;;43.00;33.67;;;;;12.58;48.75;101455.28;4980124;28;45440;-65
2022/05/03 04:21:16;;;;;;;;;42.50;35.75;;;;;12.55;49.01;101470.56;4963986;28;45482;-66
2022/05/03 04:23:41;;;;;;;;;40.67;32.33;;;;;12.51;49.25;101467.16;4978601;28;45484;-65
2022/05/03 04:26:09;;;;;;;;;43.00;34.67;;;;;12.49;49.40;101462.84;4979556;28;45528;-65
2022/05/03 04:28:34;;;;;;;;;38.00;33.33;;;;;12.45;49.51;101464.81;4979538;28;45472;-65
2022/05/03 04:31:00;;;;;;;;;43.25;34.75;;;;;12.39;49.54;101465.94;4979875;28;45310;-64
2022/05/03 04:33:25;;;;;;;;;40.75;32.75;;;;;12.33;49.60;101463.59;4979864;28;46369;-64
2022/05/03 04:35:51;;;;;;;;;42.33;33.67;;;;;12.28;49.55;101464.72;4978605;28;68139;-64
2022/05/03 04:38:16;;;;;;;;;31.67;29.67;;;;;12.24;49.79;101469.34;4977445;28;58735;-65
2022/05/03 04:40:41;;;;;;;;;47.25;35.00;;;;;12.20;49.73;101470.41;4979388;28;56138;-64
2022/05/03 04:43:07;;;;;;;;;34.33;31.33;;;;;12.16;49.93;101471.50;4979003;28;64571;-64
2022/05/03 04:45:32;;;;;;;;;42.75;33.25;;;;;12.15;50.01;101467.97;4980209;28;45412;-64
2022/05/03 04:47:58;;;;;;;;;38.33;33.67;;;;;12.14;50.11;101476.91;4977956;28;59042;-64
2022/05/03 04:50:23;;;;;;;;;43.33;34.00;;;;;12.13;49.83;101471.66;4978972;28;63915;-64
2022/05/03 04:52:48;;;;;;;;;43.00;34.00;;;;;12.11;50.23;101469.06;4977899;28;66134;-64
2022/05/03 04:55:14;;;;;;;;;42.00;34.00;;;;;12.12;50.10;101469.91;4979407;28;45740;-64
2022/05/03 04:57:39;;;;;;;;;35.67;32.00;;;;;12.13;50.17;101474.31;4977838;28;54914;-64
2022/05/03 05:00:05;;;;;;;;;41.75;33.25;;;;;12.11;50.28;101470.84;4979445;28;45311;-64
2022/05/03 05:02:32;;;;;;;;;41.25;32.50;;;;;12.08;50.34;101480.72;4975644;28;45712;-64
2022/05/03 05:04:57;;;;;;;;;47.25;33.75;;;;;12.06;50.75;101479.94;4978822;28;45238;-65
2022/05/03 05:07:23;;;;;;;;;38.75;33.50;;;;;12.05;50.50;101483.53;4977829;28;45831;-66
2022/05/03 05:12:32;;;;;;;;;45.25;36.25;;;;;12.07;50.81;101487.00;4974809;28;45330;-65
2022/05/03 05:14:58;;;;;;;;;47.75;35.50;;;;;12.06;50.19;101482.59;4977899;28;66911;-65
2022/05/03 05:17:23;;;;;;;;;36.67;32.00;;;;;12.07;50.53;101491.44;4979067;28;61357;-65
2022/05/03 05:19:49;;;;;;;;;38.33;33.00;;;;;12.09;50.39;101492.25;4979030;28;51368;-65
2022/05/03 05:22:14;;;;;;;;;41.00;35.75;;;;;12.15;50.27;101494.66;4973992;28;65590;-65
2022/05/03 05:24:39;;;;;;;;;38.00;32.75;;;;;12.19;50.55;101498.91;4978297;28;64398;-65
2022/05/03 05:27:05;;;;;;;;;43.33;33.67;;;;;12.21;50.44;101493.50;4978572;28;60019;-65
2022/05/03 05:29:31;;;;;;;;;40.00;33.75;;;;;12.23;50.52;101494.28;4979129;28;45354;-65
2022/05/03 05:31:56;;;;;;;;;41.00;34.00;;;;;12.24;50.21;101498.66;4978765;28;45401;-66
2022/05/03 05:34:21;;;;;;;;;40.00;34.33;;;;;12.22;50.73;101498.75;4978369;28;63371;-66
2022/05/03 05:36:47;;;;;;;;;32.67;31.67;;;;;12.19;50.59;101492.69;4984459;28;53871;-65
2022/05/03 05:39:12;;;;;;;;;39.67;34.00;;;;;12.19;51.00;101503.34;4978661;28;58580;-65
2022/05/03 05:41:38;;;;;;;;;41.00;34.00;;;;;12.21;50.76;101510.34;4978409;28;62896;-65
2022/05/03 05:44:04;;;;;;;;;45.50;35.50;;;;;12.21;50.88;101505.00;4978157;28;63164;-65
2022/05/03 05:46:30;;;;;;;;;27.67;26.00;;;;;12.25;50.63;101511.06;4979367;28;45335;-65
2022/05/03 05:48:55;;;;;;;;;37.33;31.67;;;;;12.27;50.37;101511.88;4977546;28;45350;-65
2022/05/03 05:51:20;;;;;;;;;45.50;33.25;;;;;12.31;50.10;101502.81;4978025;28;67121;-65
2022/05/03 05:53:46;;;;;;;;;37.00;33.67;;;;;12.36;50.21;101515.94;4978369;28;52165;-65
2022/05/03 05:56:11;;;;;;;;;43.00;34.00;;;;;12.38;50.02;101506.94;4977077;28;58312;-65
2022/05/03 05:58:40;;;;;;;;;39.33;32.67;;;;;12.44;50.10;101515.56;4977732;28;61625;-65
2022/05/03 06:01:05;;;;;;;;;40.67;34.67;;;;;12.50;50.58;101510.81;4978955;28;45303;-65
2022/05/03 06:03:31;;;;;;;;;38.67;33.67;;;;;12.55;50.13;101513.25;4978310;28;45326;-66
2022/05/03 06:05:59;;;;;;;;;42.00;33.00;;;;;12.57;50.31;101519.41;4978841;28;45328;-65
2022/05/03 06:08:25;;;;;;;;;36.00;31.33;;;;;12.57;50.08;101514.91;4977980;28;45383;-65
2022/05/03 06:10:50;;;;;;;;;39.00;34.00;;;;;12.57;50.30;101517.59;4960990;28;46056;-65
2022/05/03 06:13:16;;;;;;;;;39.25;34.25;;;;;12.61;50.17;101517.47;4970928;28;45305;-65
2022/05/03 06:15:42;;;;;;;;;44.25;35.25;;;;;12.68;49.94;101517.06;4978315;28;45318;-65
2022/05/03 06:18:08;;;;;;;;;34.67;33.00;;;;;12.77;49.98;101518.44;4978195;28;45248;-65
2022/05/03 06:20:33;;;;;;;;;38.33;31.00;;;;;12.86;49.63;101518.00;4979490;28;47006;-65
2022/05/03 06:22:59;;;;;;;;;43.33;36.00;;;;;13.00;49.68;101509.34;4973672;28;45575;-65
2022/05/03 06:25:24;;;;;;;;;45.00;33.33;;;;;13.18;49.41;101517.38;4977955;28;54674;-65
2022/05/03 06:27:51;;;;;;;;;40.00;33.00;;;;;13.39;49.29;101507.47;4977694;28;59396;-65
2022/05/03 06:30:16;;;;;;;;;41.67;35.00;;;;;13.65;48.41;101523.94;4975387;28;46074;-65
2022/05/03 06:32:43;;;;;;;;;42.33;33.33;;;;;13.85;48.41;101522.94;4958924;28;45188;-66
2022/05/03 06:35:12;;;;;;;;;39.00;32.00;;;;;14.06;48.03;101515.59;4976159;28;45329;-65
2022/05/03 06:37:38;;;;;;;;;38.33;34.00;;;;;14.33;47.68;101531.97;4978596;28;45589;-65
2022/05/03 06:40:08;;;;;;;;;44.33;33.67;;;;;14.59;47.02;101527.00;4975535;28;46213;-65
2022/05/03 06:42:35;;;;;;;;;38.67;33.67;;;;;14.74;46.80;101537.84;4959375;28;45781;-66
2022/05/03 06:45:00;;;;;;;;;40.67;35.00;;;;;14.73;46.55;101528.91;4976795;28;45381;-62
2022/05/03 06:47:27;;;;;;;;;40.00;33.67;;;;;14.67;46.60;101535.50;4977568;28;61069;-62
2022/05/03 06:49:53;;;;;;;;;37.00;32.67;;;;;14.63;46.22;101535.72;4977581;28;46894;-62
2022/05/03 06:52:20;;;;;;;;;43.00;35.00;;;;;14.54;46.38;101532.59;4978477;28;45394;-62
2022/05/03 06:54:45;;;;;;;;;36.33;30.67;;;;;14.46;46.32;101537.50;4977741;28;45463;-62
2022/05/03 06:57:10;;;;;;;;;41.33;34.67;;;;;14.43;46.51;101548.41;4967808;28;55978;-62
2022/05/03 06:59:36;;;;;;;;;39.00;33.00;;;;;14.45;46.33;101543.81;4977581;28;63860;-63
2022/05/03 07:02:01;;;;;;;;;45.00;35.67;;;;;14.49;46.34;101540.00;4979259;28;63784;-62
2022/05/03 07:04:26;;;;;;;;;41.67;32.00;;;;;14.51;46.43;101535.44;4980770;28;58216;-62
2022/05/03 07:06:52;;;;;;;;;32.33;28.33;;;;;14.56;46.21;101537.84;4979475;28;56330;-62
2022/05/03 07:09:17;;;;;;;;;36.67;32.33;;;;;14.55;46.12;101536.16;4982072;28;46932;-62
2022/05/03 07:11:43;;;;;;;;;37.00;33.67;;;;;14.54;45.92;101537.09;4986995;28;60600;-62
2022/05/03 07:14:08;;;;;;;;;35.67;33.00;;;;;14.54;45.84;101542.44;4980671;28;59019;-62
2022/05/03 07:16:33;;;;;;;;;35.67;32.00;;;;;14.56;46.03;101540.53;4981167;28;55607;-62
2022/05/03 07:24:27;;;;;;;;;37.33;32.67;;;;;14.68;45.81;101533.69;4981546;28;45267;-62
2022/05/03 07:26:52;;;;;;;;;42.33;32.33;;;;;14.68;45.81;101539.91;4980732;28;45629;-62
2022/05/03 07:29:17;;;;;;;;;30.67;30.00;;;;;14.72;45.89;101541.44;4981123;28;45399;-63
2022/05/03 07:31:43;;;;;;;;;43.33;32.67;;;;;14.85;45.67;101547.00;4979801;28;64581;-62
2022/05/03 07:34:11;;;;;;;;;30.33;29.00;;;;;14.97;45.35;101544.56;4981372;28;45307;-62
2022/05/03 07:36:36;;;;;;;;;39.33;31.33;;;;;15.17;45.11;101546.09;4981268;28;46005;-62
2022/05/03 07:39:02;;;;;;;;;38.33;32.67;;;;;15.59;44.49;101547.25;4963032;28;46858;-62
2022/05/03 07:41:28;;;;;;;;;34.67;31.00;;;;;15.90;44.34;101548.09;4963511;28;45910;-62
2022/05/03 07:43:53;;;;;;;;;34.67;30.00;;;;;16.27;43.89;101542.28;4980295;28;45536;-62
2022/05/03 07:46:18;;;;;;;;;35.67;29.67;;;;;16.62;42.99;101555.31;4980600;28;58685;-63
2022/05/03 07:48:44;;;;;;;;;38.00;28.67;;;;;16.79;42.68;101549.72;4962236;28;54628;-62
2022/05/03 07:51:12;;;;;;;;;38.00;30.33;;;;;16.93;41.81;101548.00;4980510;28;61552;-62
2022/05/03 07:53:39;;;;;;;;;29.00;27.33;;;;;16.96;41.79;101562.09;4980833;28;45337;-62
2022/05/03 07:56:05;;;;;;;;;33.67;27.67;;;;;16.93;41.67;101558.75;4980714;28;45503;-62
2022/05/03 07:58:30;;;;;;;;;34.67;31.33;;;;;16.78;41.89;101557.88;4977481;28;46161;-63
2022/05/03 08:00:56;;;;;;;;;36.67;32.00;;;;;16.57;41.47;101558.28;4974609;28;45339;-62
2022/05/03 08:03:21;;;;;;;;;37.00;31.00;;;;;16.43;42.43;101558.31;4980292;28;45386;-62
2022/05/03 08:05:47;;;;;;;;;36.67;33.00;;;;;16.40;42.47;101554.00;4979860;28;45254;-62
2022/05/03 08:08:13;;;;;;;;;38.00;29.67;;;;;16.32;42.05;101556.28;4979840;28;63554;-62
2022/05/03 08:10:38;;;;;;;;;33.67;31.00;;;;;16.26;42.08;101559.38;4980573;28;45322;-62
2022/05/03 08:13:03;;;;;;;;;36.00;30.67;;;;;16.21;41.94;101560.50;4978932;28;59010;-62
2022/05/03 08:15:29;;;;;;;;;35.67;29.67;;;;;16.22;42.11;101561.38;4980553;28;45219;-62
2022/05/03 08:17:54;;;;;;;;;34.00;29.67;;;;;16.36;42.38;101561.38;4979370;28;59693;-62
2022/05/03 08:20:20;;;;;;;;;33.67;31.00;;;;;16.78;42.20;101555.19;4980124;28;53015;-62
2022/05/03 08:22:45;;;;;;;;;34.67;28.67;;;;;17.23;42.04;101557.69;4979248;28;54614;-62
2022/05/03 08:25:10;;;;;;;;;35.00;31.67;;;;;17.71;41.17;101559.88;4980227;28;54436;-63
2022/05/03 08:27:38;;;;;;;;;33.00;31.00;;;;;17.99;40.77;101558.84;4979551;28;45421;-62
2022/05/03 08:30:04;;;;;;;;;43.67;32.67;;;;;18.24;40.06;101557.13;4979741;28;45374;-62
2022/05/03 08:32:30;;;;;;;;;31.33;29.00;;;;;18.44;40.13;101558.44;4979271;28;45450;-62
2022/05/03 08:34:55;;;;;;;;;35.67;28.67;;;;;18.58;40.01;101555.59;4979315;28;59248;-62
2022/05/03 08:42:49;;;;;;;;;31.00;25.00;;;;;19.11;38.96;101547.28;4979523;28;45406;-62
2022/05/03 08:45:14;;;;;;;;;30.33;27.00;;;;;19.20;37.47;101558.34;4978870;28;61662;-62
2022/05/03 08:47:41;;;;;;;;;29.00;26.00;;;;;19.15;38.09;101551.47;4978972;28;53667;-63
2022/05/03 08:50:10;;;;;;;;;26.33;23.00;;;;;19.32;36.82;101557.41;4962072;28;45356;-63
2022/05/03 08:52:50;;;;;;;;;31.00;28.33;;;;;19.49;37.37;101557.03;4955526;28;45278;-62
2022/05/03 08:55:16;;;;;;;;;32.33;30.00;;;;;19.58;36.59;101550.06;4980747;28;45504;-63
2022/05/03 08:57:45;;;;;;;;;43.33;32.33;;;;;19.57;36.84;101555.56;4978922;28;46987;-63
2022/05/03 09:00:14;;;;;;;;;25.00;24.67;;;;;19.70;36.34;101556.38;4979493;28;45331;-63
2022/05/03 09:02:43;;;;;;;;;22.00;22.00;;;;;19.70;35.39;101556.38;4979619;28;45421;-63
2022/05/03 09:05:09;;;;;;;;;26.33;25.00;;;;;19.91;35.31;101555.72;4979499;28;45413;-63
2022/05/03 09:07:36;;;;;;;;;27.67;27.33;;;;;20.16;35.58;101557.34;4962017;28;46295;-62
2022/05/03 09:10:18;;;;;;;;;25.67;25.33;;;;;20.26;35.46;101552.94;4977293;28;45275;-63
2022/05/03 09:12:44;;;;;;;;;25.67;24.33;;;;;20.41;35.28;101558.09;4962040;28;45444;-63
2022/05/03 09:15:09;;;;;;;;;31.33;27.00;;;;;20.45;35.31;101562.28;4979669;28;45175;-63
2022/05/03 09:17:45;;;;;;;;;29.67;29.00;;;;;20.32;35.52;101568.66;4979529;28;46131;-63
2022/05/03 09:25:44;;;;;;;;;26.00;25.00;;;;;20.25;34.70;101559.31;4978517;28;45636;-63
2022/05/03 09:28:10;;;;;;;;;30.67;28.00;;;;;20.66;34.94;101560.56;4979345;28;47062;-63
2022/05/03 09:30:35;;;;;;;;;35.33;28.67;;;;;20.77;33.45;101554.28;4978611;28;60915;-62
2022/05/03 09:33:00;;;;;;;;;26.33;21.67;;;;;20.71;34.51;101560.19;4962040;28;45435;-62
2022/05/03 09:35:35;;;;;;;;;21.67;20.00;;;;;20.70;34.09;101563.03;4978867;28;61331;-63
2022/05/03 09:38:03;;;;;;;;;26.00;22.33;;;;;20.60;34.34;101555.63;4978829;28;46268;-63
2022/05/03 09:40:29;;;;;;;;;27.67;25.33;;;;;20.65;34.99;101548.00;4978593;28;45489;-63
2022/05/03 09:42:55;;;;;;;;;26.33;24.00;;;;;20.90;33.88;101548.75;4961181;28;45361;-63
2022/05/03 09:45:24;;;;;;;;;23.00;23.00;;;;;21.05;34.58;101551.16;4979254;28;45484;-63
2022/05/03 09:47:56;;;;;;;;;26.33;24.00;;;;;21.44;33.80;101549.66;4979006;28;46330;-63
2022/05/03 09:50:28;;;;;;;;;25.33;23.00;;;;;21.92;33.13;101542.06;4976587;28;45382;-63
2022/05/03 09:52:55;;;;;;;;;26.00;26.00;;;;;21.97;32.84;101540.66;4978609;28;45252;-63
2022/05/03 09:55:32;;;;;;;;;22.67;22.00;;;;;22.17;32.70;101545.34;4981745;28;45310;-62
2022/05/03 09:58:09;;;;;;;;;32.67;26.67;;;;;22.22;31.73;101535.81;4978115;28;46363;-63
2022/05/03 10:00:35;;;;;;;;;26.00;24.00;;;;;22.30;32.27;101543.25;4963058;28;45349;-63
2022/05/03 10:03:01;;;;;;;;;20.67;20.67;;;;;22.41;32.27;101540.50;4978390;28;45617;-62
2022/05/03 10:05:26;;;;;;;;;21.00;19.67;;;;;22.86;32.15;101536.50;4979271;28;45394;-62
2022/05/03 10:07:55;;;;;;;;;26.33;25.00;;;;;23.62;31.28;101532.25;4960489;28;47317;-62
2022/05/03 10:10:21;;;;;;;;;27.67;24.33;;;;;24.78;30.19;101540.22;4979276;28;45511;-63
2022/05/03 10:12:47;;;;;;;;;20.00;20.00;;;;;26.07;28.04;101544.47;4978114;28;45306;-63
2022/05/03 10:15:14;;;;;;;;;25.67;20.00;;;;;26.87;27.17;101527.81;4978972;28;45340;-63
2022/05/03 10:20:36;;;;;;;;;20.33;19.33;;;;;29.45;24.38;101522.38;4964071;28;45342;-63
2022/05/03 10:23:02;;;;;;;;;22.67;21.33;;;;;30.69;22.36;101523.78;4946577;28;45377;-63
2022/05/03 10:25:29;;;;;;;;;18.67;18.67;;;;;31.02;22.70;101526.88;4978738;28;45591;-63
2022/05/03 10:27:55;;;;;;;;;23.00;19.67;;;;;32.10;22.68;101527.84;4960902;28;45303;-63
2022/05/03 10:30:22;;;;;;;;;25.67;18.67;;;;;33.76;22.23;101529.38;4978451;28;45432;-63
2022/05/03 10:33:36;;;;;;;;;23.67;22.33;;;;;35.54;20.15;101526.28;4967586;28;45409;-63
2022/05/03 10:36:23;;;;;;;;;18.00;17.00;;;;;36.71;17.51;101535.69;4963041;28;45280;-63
2022/05/03 10:38:49;;;;;;;;;20.00;16.33;;;;;37.01;16.31;101532.06;4966758;28;46075;-63
2022/05/03 10:41:22;;;;;;;;;19.67;16.67;;;;;37.03;15.37;101535.47;4982163;28;45452;-63
2022/05/03 10:43:48;;;;;;;;;16.33;15.67;;;;;37.64;16.77;101540.03;4981203;28;45475;-63
2022/05/03 10:46:14;;;;;;;;;17.33;16.33;;;;;38.01;15.21;101525.94;4981869;28;45496;-63
2022/05/03 10:48:43;;;;;;;;;15.67;13.67;;;;;38.17;14.68;101527.94;4963877;28;45495;-63
2022/05/03 10:51:10;;;;;;;;;18.00;15.67;;;;;38.69;14.79;101534.59;4981816;28;45326;-63
2022/05/03 10:53:37;;;;;;;;;18.67;17.00;;;;;38.87;13.45;101523.28;4964436;28;45504;-63
2022/05/03 10:56:19;;;;;;;;;16.67;16.67;;;;;39.06;14.60;101531.41;4966257;28;45624;-63
2022/05/03 10:59:03;;;;;;;;;15.00;13.00;;;;;39.13;13.87;101525.72;4978969;28;47046;-63
2022/05/03 11:01:29;;;;;;;;;16.67;15.67;;;;;38.69;14.20;101518.75;4981735;28;45262;-63
2022/05/03 11:03:54;;;;;;;;;13.00;13.00;;;;;38.41;14.25;101519.63;4964125;28;46087;-63
2022/05/03 11:06:19;;;;;;;;;13.00;13.00;;;;;39.10;14.26;101518.72;4981620;28;45460;-63
2022/05/03 11:08:57;;;;;;;;;11.00;11.00;;;;;39.66;13.58;101515.19;4981318;28;46219;-63
2022/05/03 11:11:37;;;;;;;;;13.67;12.00;;;;;39.17;12.80;101524.09;4980063;28;45535;-64
2022/05/03 11:14:03;;;;;;;;;12.67;11.67;;;;;38.04;13.77;101512.44;4980940;28;45461;-63
2022/05/03 11:16:34;;;;;;;;;9.50;9.50;;;;;37.02;13.81;101513.53;4979731;28;45397;-63
2022/05/03 11:19:13;;;;;;;;;11.00;11.00;;;;;36.60;14.85;101514.31;4980995;28;46075;-63
2022/05/03 11:21:39;;;;;;;;;10.25;10.25;;;;;36.91;14.41;101515.19;4965603;28;45326;-64
2022/05/03 11:24:05;;;;;;;;;11.67;11.67;;;;;36.14;14.79;101513.81;4981340;28;45373;-64
2022/05/03 11:26:31;;;;;;;;;8.00;8.00;;;;;35.14;14.87;101510.00;4981762;28;45295;-64
2022/05/03 11:28:57;;;;;;;;;13.00;12.00;;;;;34.74;15.25;101508.28;4979949;28;57605;-62
2022/05/03 11:31:23;;;;;;;;;14.33;13.00;;;;;33.63;16.23;101515.59;4981369;28;45402;-64
2022/05/03 11:33:57;;;;;;;;;11.00;10.33;;;;;32.95;16.46;101511.94;4980714;28;45380;-64
2022/05/03 11:36:23;;;;;;;;;11.33;9.33;;;;;32.07;16.38;101508.97;4980472;28;45527;-63
2022/05/03 11:38:52;;;;;;;;;10.33;7.00;;;;;31.31;17.27;101516.00;4980663;28;46173;-63
2022/05/03 11:41:24;;;;;;;;;10.00;10.00;;;;;30.61;18.07;101507.41;4963837;28;45396;-62
2022/05/03 11:43:50;;;;;;;;;12.33;8.67;;;;;30.18;18.88;101495.25;4979939;28;45266;-64
2022/05/03 11:46:16;;;;;;;;;8.67;8.00;;;;;29.86;18.79;101497.28;4981004;28;45313;-62